sensor_id;sensor_type;location;lat;lon;timestamp;P1;durP1;ratioP1;P2;durP2;ratioP2
30299;SDS011;17110;52.602;12.998;2023-08-30T00:00:16;2.55;;;2.35;;
30299;SDS011;17110;52.602;12.998;2023-08-30T00:00:47;2.72;;;2.53;;
30299;SDS011;17110;52.602;12.998;2023-08-30T00:01:42;4.53;;;2.60;;
30299;SDS011;17110;52.602;12.998;2023-08-30T00:02:13;2.88;;;2.67;;
30299;SDS011;17110;52.602;12.998;2023-08-30T00:02:43;3.28;;;2.85;;
30299;SDS011;17110;52.602;12.998;2023-08-30T00:03:14;2.70;;;2.33;;
30299;SDS011;17110;52.602;12.998;2023-08-30T00:03:45;2.88;;;2.67;;
30299;SDS011;17110;52.602;12.998;2023-08-30T00:04:15;2.83;;;2.63;;
30299;SDS011;17110;52.602;12.998;2023-08-30T00:04:46;3.38;;;2.70;;
30299;SDS011;17110;52.602;12.998;2023-08-30T00:05:18;3.75;;;2.67;;
30299;SDS011;17110;52.602;12.998;2023-08-30T00:05:51;3.33;;;2.80;;
30299;SDS011;17110;52.602;12.998;2023-08-30T00:06:22;2.80;;;2.60;;
30299;SDS011;17110;52.602;12.998;2023-08-30T00:06:52;3.47;;;2.88;;
30299;SDS011;17110;52.602;12.998;2023-08-30T00:07:23;2.85;;;2.38;;
30299;SDS011;17110;52.602;12.998;2023-08-30T00:07:54;3.65;;;2.60;;
30299;SDS011;17110;52.602;12.998;2023-08-30T00:08:40;2.88;;;2.67;;
30299;SDS011;17110;52.602;12.998;2023-08-30T00:09:10;5.60;;;3.00;;
30299;SDS011;17110;52.602;12.998;2023-08-30T00:09:41;3.85;;;2.90;;
30299;SDS011;17110;52.602;12.998;2023-08-30T00:10:11;3.67;;;2.88;;
30299;SDS011;17110;52.602;12.998;2023-08-30T00:11:01;2.70;;;2.47;;
30299;SDS011;17110;52.602;12.998;2023-08-30T00:11:32;2.53;;;2.33;;
30299;SDS011;17110;52.602;12.998;2023-08-30T00:12:03;2.88;;;2.60;;
30299;SDS011;17110;52.602;12.998;2023-08-30T00:12:34;3.08;;;2.78;;
30299;SDS011;17110;52.602;12.998;2023-08-30T00:13:04;3.03;;;2.78;;
30299;SDS011;17110;52.602;12.998;2023-08-30T00:13:35;3.20;;;2.90;;
30299;SDS011;17110;52.602;12.998;2023-08-30T00:14:06;3.45;;;2.63;;
30299;SDS011;17110;52.602;12.998;2023-08-30T00:14:36;3.10;;;2.28;;
30299;SDS011;17110;52.602;12.998;2023-08-30T00:15:07;3.22;;;2.92;;
30299;SDS011;17110;52.602;12.998;2023-08-30T00:15:38;2.80;;;2.60;;
30299;SDS011;17110;52.602;12.998;2023-08-30T00:16:09;2.70;;;2.50;;
30299;SDS011;17110;52.602;12.998;2023-08-30T00:16:39;3.10;;;2.85;;
30299;SDS011;17110;52.602;12.998;2023-08-30T00:17:10;3.03;;;2.50;;
30299;SDS011;17110;52.602;12.998;2023-08-30T00:17:41;3.20;;;2.88;;
30299;SDS011;17110;52.602;12.998;2023-08-30T00:18:11;3.30;;;3.00;;
30299;SDS011;17110;52.602;12.998;2023-08-30T00:18:42;2.92;;;2.72;;
30299;SDS011;17110;52.602;12.998;2023-08-30T00:19:13;3.20;;;2.90;;
30299;SDS011;17110;52.602;12.998;2023-08-30T00:19:43;3.28;;;2.47;;
30299;SDS011;17110;52.602;12.998;2023-08-30T00:20:14;3.88;;;3.05;;
30299;SDS011;17110;52.602;12.998;2023-08-30T00:20:46;3.25;;;3.05;;
30299;SDS011;17110;52.602;12.998;2023-08-30T00:21:16;2.85;;;2.65;;
30299;SDS011;17110;52.602;12.998;2023-08-30T00:21:47;2.80;;;2.60;;
30299;SDS011;17110;52.602;12.998;2023-08-30T00:22:18;3.40;;;3.05;;
30299;SDS011;17110;52.602;12.998;2023-08-30T00:22:48;3.28;;;2.60;;
30299;SDS011;17110;52.602;12.998;2023-08-30T00:23:19;2.58;;;2.40;;
30299;SDS011;17110;52.602;12.998;2023-08-30T00:23:49;3.10;;;2.88;;
30299;SDS011;17110;52.602;12.998;2023-08-30T00:24:21;3.08;;;2.88;;
30299;SDS011;17110;52.602;12.998;2023-08-30T00:24:52;2.67;;;2.47;;
30299;SDS011;17110;52.602;12.998;2023-08-30T00:25:23;2.75;;;2.55;;
30299;SDS011;17110;52.602;12.998;2023-08-30T00:25:53;2.13;;;2.03;;
30299;SDS011;17110;52.602;12.998;2023-08-30T00:26:24;2.95;;;2.67;;
30299;SDS011;17110;52.602;12.998;2023-08-30T00:26:55;2.60;;;2.45;;
30299;SDS011;17110;52.602;12.998;2023-08-30T00:27:26;2.92;;;2.47;;
30299;SDS011;17110;52.602;12.998;2023-08-30T00:28:52;2.38;;;2.15;;
30299;SDS011;17110;52.602;12.998;2023-08-30T00:29:22;2.95;;;2.60;;
30299;SDS011;17110;52.602;12.998;2023-08-30T00:29:53;3.00;;;2.80;;
30299;SDS011;17110;52.602;12.998;2023-08-30T00:30:23;2.97;;;2.60;;
30299;SDS011;17110;52.602;12.998;2023-08-30T00:30:54;2.70;;;2.40;;
30299;SDS011;17110;52.602;12.998;2023-08-30T00:31:25;2.90;;;2.63;;
30299;SDS011;17110;52.602;12.998;2023-08-30T00:31:56;2.63;;;2.53;;
30299;SDS011;17110;52.602;12.998;2023-08-30T00:32:26;2.88;;;2.63;;
30299;SDS011;17110;52.602;12.998;2023-08-30T00:32:57;2.70;;;2.50;;
30299;SDS011;17110;52.602;12.998;2023-08-30T00:33:27;4.45;;;2.35;;
30299;SDS011;17110;52.602;12.998;2023-08-30T00:33:58;3.05;;;2.83;;
30299;SDS011;17110;52.602;12.998;2023-08-30T00:34:29;2.67;;;2.40;;
30299;SDS011;17110;52.602;12.998;2023-08-30T00:34:59;2.90;;;2.70;;
30299;SDS011;17110;52.602;12.998;2023-08-30T00:35:30;2.75;;;2.38;;
30299;SDS011;17110;52.602;12.998;2023-08-30T00:36:02;2.90;;;2.70;;
30299;SDS011;17110;52.602;12.998;2023-08-30T00:36:33;3.00;;;2.80;;
30299;SDS011;17110;52.602;12.998;2023-08-30T00:37:03;2.58;;;2.38;;
30299;SDS011;17110;52.602;12.998;2023-08-30T00:37:34;3.97;;;2.60;;
30299;SDS011;17110;52.602;12.998;2023-08-30T00:38:05;3.90;;;2.80;;
30299;SDS011;17110;52.602;12.998;2023-08-30T00:38:35;2.83;;;2.63;;
30299;SDS011;17110;52.602;12.998;2023-08-30T00:39:06;2.72;;;2.63;;
30299;SDS011;17110;52.602;12.998;2023-08-30T00:39:37;2.90;;;2.70;;
30299;SDS011;17110;52.602;12.998;2023-08-30T00:40:08;2.42;;;2.22;;
30299;SDS011;17110;52.602;12.998;2023-08-30T00:40:39;3.42;;;2.75;;
30299;SDS011;17110;52.602;12.998;2023-08-30T00:41:10;2.80;;;2.60;;
30299;SDS011;17110;52.602;12.998;2023-08-30T00:41:40;2.70;;;2.50;;
30299;SDS011;17110;52.602;12.998;2023-08-30T00:42:11;2.53;;;2.33;;
30299;SDS011;17110;52.602;12.998;2023-08-30T00:42:42;2.72;;;2.47;;
30299;SDS011;17110;52.602;12.998;2023-08-30T00:43:12;2.90;;;2.70;;
30299;SDS011;17110;52.602;12.998;2023-08-30T00:43:43;3.50;;;2.70;;
30299;SDS011;17110;52.602;12.998;2023-08-30T00:44:14;3.55;;;3.00;;
30299;SDS011;17110;52.602;12.998;2023-08-30T00:44:44;2.50;;;2.30;;
30299;SDS011;17110;52.602;12.998;2023-08-30T00:45:15;3.70;;;2.50;;
30299;SDS011;17110;52.602;12.998;2023-08-30T00:45:46;3.65;;;2.85;;
30299;SDS011;17110;52.602;12.998;2023-08-30T00:46:17;4.18;;;3.05;;
30299;SDS011;17110;52.602;12.998;2023-08-30T00:46:54;3.83;;;2.50;;
30299;SDS011;17110;52.602;12.998;2023-08-30T00:47:25;2.90;;;2.65;;
30299;SDS011;17110;52.602;12.998;2023-08-30T00:47:56;2.65;;;2.45;;
30299;SDS011;17110;52.602;12.998;2023-08-30T00:48:28;3.40;;;3.10;;
30299;SDS011;17110;52.602;12.998;2023-08-30T00:48:59;2.92;;;2.45;;
30299;SDS011;17110;52.602;12.998;2023-08-30T00:49:30;2.70;;;2.40;;
30299;SDS011;17110;52.602;12.998;2023-08-30T00:50:01;2.97;;;2.67;;
30299;SDS011;17110;52.602;12.998;2023-08-30T00:50:32;3.38;;;2.70;;
30299;SDS011;17110;52.602;12.998;2023-08-30T00:51:05;2.95;;;2.75;;
30299;SDS011;17110;52.602;12.998;2023-08-30T00:51:36;2.78;;;2.58;;
30299;SDS011;17110;52.602;12.998;2023-08-30T00:52:07;3.28;;;2.95;;
30299;SDS011;17110;52.602;12.998;2023-08-30T00:52:39;3.03;;;2.83;;
30299;SDS011;17110;52.602;12.998;2023-08-30T00:53:10;3.25;;;3.05;;
30299;SDS011;17110;52.602;12.998;2023-08-30T00:53:56;4.45;;;2.95;;
30299;SDS011;17110;52.602;12.998;2023-08-30T00:54:27;3.67;;;2.92;;
30299;SDS011;17110;52.602;12.998;2023-08-30T00:54:58;3.50;;;3.20;;
30299;SDS011;17110;52.602;12.998;2023-08-30T00:55:29;3.65;;;2.90;;
30299;SDS011;17110;52.602;12.998;2023-08-30T00:55:59;3.03;;;2.70;;
30299;SDS011;17110;52.602;12.998;2023-08-30T00:56:30;2.78;;;2.55;;
30299;SDS011;17110;52.602;12.998;2023-08-30T00:57:02;2.80;;;2.60;;
30299;SDS011;17110;52.602;12.998;2023-08-30T00:57:34;2.88;;;2.42;;
30299;SDS011;17110;52.602;12.998;2023-08-30T00:58:05;3.08;;;2.70;;
30299;SDS011;17110;52.602;12.998;2023-08-30T00:58:36;2.85;;;2.65;;
30299;SDS011;17110;52.602;12.998;2023-08-30T00:59:07;2.95;;;2.75;;
30299;SDS011;17110;52.602;12.998;2023-08-30T00:59:38;3.65;;;2.30;;
30299;SDS011;17110;52.602;12.998;2023-08-30T01:00:09;2.50;;;2.30;;
30299;SDS011;17110;52.602;12.998;2023-08-30T01:00:40;3.53;;;2.97;;
30299;SDS011;17110;52.602;12.998;2023-08-30T01:01:14;2.78;;;2.58;;
30299;SDS011;17110;52.602;12.998;2023-08-30T01:01:45;3.17;;;2.90;;
30299;SDS011;17110;52.602;12.998;2023-08-30T01:02:16;2.85;;;2.65;;
30299;SDS011;17110;52.602;12.998;2023-08-30T01:02:46;3.47;;;2.90;;
30299;SDS011;17110;52.602;12.998;2023-08-30T01:03:17;2.95;;;2.60;;
30299;SDS011;17110;52.602;12.998;2023-08-30T01:03:47;3.50;;;3.20;;
30299;SDS011;17110;52.602;12.998;2023-08-30T01:04:18;2.83;;;2.63;;
30299;SDS011;17110;52.602;12.998;2023-08-30T01:04:49;3.20;;;3.00;;
30299;SDS011;17110;52.602;12.998;2023-08-30T01:05:20;3.20;;;3.00;;
30299;SDS011;17110;52.602;12.998;2023-08-30T01:05:50;2.70;;;2.50;;
30299;SDS011;17110;52.602;12.998;2023-08-30T01:06:22;3.30;;;3.00;;
30299;SDS011;17110;52.602;12.998;2023-08-30T01:06:53;3.30;;;2.88;;
30299;SDS011;17110;52.602;12.998;2023-08-30T01:07:24;3.15;;;2.85;;
30299;SDS011;17110;52.602;12.998;2023-08-30T01:07:54;3.50;;;3.20;;
30299;SDS011;17110;52.602;12.998;2023-08-30T01:08:25;5.80;;;3.63;;
30299;SDS011;17110;52.602;12.998;2023-08-30T01:08:56;2.83;;;2.63;;
30299;SDS011;17110;52.602;12.998;2023-08-30T01:09:27;3.55;;;3.25;;
30299;SDS011;17110;52.602;12.998;2023-08-30T01:09:58;3.85;;;3.35;;
30299;SDS011;17110;52.602;12.998;2023-08-30T01:10:33;3.60;;;3.30;;
30299;SDS011;17110;52.602;12.998;2023-08-30T01:11:11;6.35;;;3.30;;
30299;SDS011;17110;52.602;12.998;2023-08-30T01:12:07;3.65;;;3.35;;
30299;SDS011;17110;52.602;12.998;2023-08-30T01:12:43;3.58;;;3.28;;
30299;SDS011;17110;52.602;12.998;2023-08-30T01:13:18;3.67;;;3.35;;
30299;SDS011;17110;52.602;12.998;2023-08-30T01:13:51;3.38;;;3.00;;
30299;SDS011;17110;52.602;12.998;2023-08-30T01:14:25;3.75;;;3.10;;
30299;SDS011;17110;52.602;12.998;2023-08-30T01:15:02;3.75;;;3.45;;
30299;SDS011;17110;52.602;12.998;2023-08-30T01:15:37;3.40;;;3.10;;
30299;SDS011;17110;52.602;12.998;2023-08-30T01:16:08;3.40;;;3.10;;
30299;SDS011;17110;52.602;12.998;2023-08-30T01:16:39;3.95;;;3.53;;
30299;SDS011;17110;52.602;12.998;2023-08-30T01:17:10;3.70;;;3.42;;
30299;SDS011;17110;52.602;12.998;2023-08-30T01:17:43;4.30;;;3.47;;
30299;SDS011;17110;52.602;12.998;2023-08-30T01:18:33;5.25;;;4.10;;
30299;SDS011;17110;52.602;12.998;2023-08-30T01:19:11;4.00;;;3.67;;
30299;SDS011;17110;52.602;12.998;2023-08-30T01:20:04;3.72;;;3.42;;
30299;SDS011;17110;52.602;12.998;2023-08-30T01:20:37;4.97;;;3.70;;
30299;SDS011;17110;52.602;12.998;2023-08-30T01:21:12;4.05;;;3.75;;
30299;SDS011;17110;52.602;12.998;2023-08-30T01:21:58;3.75;;;3.47;;
30299;SDS011;17110;52.602;12.998;2023-08-30T01:22:38;4.03;;;3.22;;
30299;SDS011;17110;52.602;12.998;2023-08-30T01:23:18;4.18;;;3.30;;
30299;SDS011;17110;52.602;12.998;2023-08-30T01:23:58;4.68;;;3.95;;
30299;SDS011;17110;52.602;12.998;2023-08-30T01:24:32;4.05;;;3.75;;
30299;SDS011;17110;52.602;12.998;2023-08-30T01:25:24;4.10;;;3.72;;
30299;SDS011;17110;52.602;12.998;2023-08-30T01:26:03;4.03;;;3.72;;
30299;SDS011;17110;52.602;12.998;2023-08-30T01:26:41;5.32;;;3.92;;
30299;SDS011;17110;52.602;12.998;2023-08-30T01:27:22;4.07;;;3.78;;
30299;SDS011;17110;52.602;12.998;2023-08-30T01:27:54;4.40;;;4.05;;
30299;SDS011;17110;52.602;12.998;2023-08-30T01:28:38;4.30;;;4.00;;
30299;SDS011;17110;52.602;12.998;2023-08-30T01:29:09;5.63;;;4.18;;
30299;SDS011;17110;52.602;12.998;2023-08-30T01:29:43;4.68;;;3.50;;
30299;SDS011;17110;52.602;12.998;2023-08-30T01:30:16;6.05;;;3.78;;
30299;SDS011;17110;52.602;12.998;2023-08-30T01:30:48;4.78;;;4.00;;
30299;SDS011;17110;52.602;12.998;2023-08-30T01:31:20;4.50;;;4.10;;
30299;SDS011;17110;52.602;12.998;2023-08-30T01:31:53;4.07;;;3.67;;
30299;SDS011;17110;52.602;12.998;2023-08-30T01:32:28;4.72;;;3.90;;
30299;SDS011;17110;52.602;12.998;2023-08-30T01:33:00;3.95;;;3.72;;
30299;SDS011;17110;52.602;12.998;2023-08-30T01:33:31;4.40;;;4.00;;
30299;SDS011;17110;52.602;12.998;2023-08-30T01:34:04;5.03;;;4.32;;
30299;SDS011;17110;52.602;12.998;2023-08-30T01:34:35;4.25;;;3.95;;
30299;SDS011;17110;52.602;12.998;2023-08-30T01:35:08;4.00;;;3.70;;
30299;SDS011;17110;52.602;12.998;2023-08-30T01:35:55;4.53;;;4.18;;
30299;SDS011;17110;52.602;12.998;2023-08-30T01:36:28;4.10;;;3.80;;
30299;SDS011;17110;52.602;12.998;2023-08-30T01:36:59;6.15;;;4.35;;
30299;SDS011;17110;52.602;12.998;2023-08-30T01:37:31;5.07;;;4.55;;
30299;SDS011;17110;52.602;12.998;2023-08-30T01:38:03;5.05;;;4.38;;
30299;SDS011;17110;52.602;12.998;2023-08-30T01:38:34;4.38;;;3.97;;
30299;SDS011;17110;52.602;12.998;2023-08-30T01:39:06;4.90;;;3.92;;
30299;SDS011;17110;52.602;12.998;2023-08-30T01:39:37;4.35;;;3.95;;
30299;SDS011;17110;52.602;12.998;2023-08-30T01:40:09;4.28;;;3.97;;
30299;SDS011;17110;52.602;12.998;2023-08-30T01:40:41;4.82;;;4.28;;
30299;SDS011;17110;52.602;12.998;2023-08-30T01:41:13;4.18;;;3.78;;
30299;SDS011;17110;52.602;12.998;2023-08-30T01:41:45;4.53;;;4.22;;
30299;SDS011;17110;52.602;12.998;2023-08-30T01:42:17;6.65;;;4.05;;
30299;SDS011;17110;52.602;12.998;2023-08-30T01:42:49;4.57;;;4.07;;
30299;SDS011;17110;52.602;12.998;2023-08-30T01:43:20;4.45;;;4.15;;
30299;SDS011;17110;52.602;12.998;2023-08-30T01:43:52;4.82;;;4.30;;
30299;SDS011;17110;52.602;12.998;2023-08-30T01:44:23;4.50;;;4.10;;
30299;SDS011;17110;52.602;12.998;2023-08-30T01:44:56;4.88;;;4.47;;
30299;SDS011;17110;52.602;12.998;2023-08-30T01:45:30;4.68;;;4.07;;
30299;SDS011;17110;52.602;12.998;2023-08-30T01:46:04;4.32;;;3.92;;
30299;SDS011;17110;52.602;12.998;2023-08-30T01:46:36;4.47;;;4.07;;
30299;SDS011;17110;52.602;12.998;2023-08-30T01:47:09;5.07;;;4.68;;
30299;SDS011;17110;52.602;12.998;2023-08-30T01:47:40;4.90;;;4.15;;
30299;SDS011;17110;52.602;12.998;2023-08-30T01:48:13;4.45;;;4.15;;
30299;SDS011;17110;52.602;12.998;2023-08-30T01:48:46;3.85;;;3.60;;
30299;SDS011;17110;52.602;12.998;2023-08-30T01:49:17;3.97;;;3.67;;
30299;SDS011;17110;52.602;12.998;2023-08-30T01:49:48;4.47;;;4.18;;
30299;SDS011;17110;52.602;12.998;2023-08-30T01:50:26;4.63;;;3.80;;
30299;SDS011;17110;52.602;12.998;2023-08-30T01:52:24;4.15;;;3.78;;
30299;SDS011;17110;52.602;12.998;2023-08-30T01:53:39;5.13;;;4.43;;
30299;SDS011;17110;52.602;12.998;2023-08-30T01:54:11;6.85;;;4.93;;
30299;SDS011;17110;52.602;12.998;2023-08-30T01:55:40;4.63;;;4.22;;
30299;SDS011;17110;52.602;12.998;2023-08-30T01:56:12;4.32;;;3.97;;
30299;SDS011;17110;52.602;12.998;2023-08-30T01:56:43;4.43;;;4.13;;
30299;SDS011;17110;52.602;12.998;2023-08-30T01:57:14;4.10;;;3.80;;
30299;SDS011;17110;52.602;12.998;2023-08-30T01:57:44;4.78;;;4.38;;
30299;SDS011;17110;52.602;12.998;2023-08-30T01:58:16;4.30;;;4.00;;
30299;SDS011;17110;52.602;12.998;2023-08-30T01:58:47;4.43;;;3.88;;
30299;SDS011;17110;52.602;12.998;2023-08-30T01:59:17;6.78;;;4.35;;
30299;SDS011;17110;52.602;12.998;2023-08-30T01:59:48;5.13;;;4.65;;
30299;SDS011;17110;52.602;12.998;2023-08-30T02:00:19;4.80;;;4.40;;
30299;SDS011;17110;52.602;12.998;2023-08-30T02:00:50;5.15;;;4.70;;
30299;SDS011;17110;52.602;12.998;2023-08-30T02:01:21;5.00;;;4.60;;
30299;SDS011;17110;52.602;12.998;2023-08-30T02:01:51;4.10;;;3.80;;
30299;SDS011;17110;52.602;12.998;2023-08-30T02:02:22;4.97;;;4.47;;
30299;SDS011;17110;52.602;12.998;2023-08-30T02:02:53;4.38;;;4.07;;
30299;SDS011;17110;52.602;12.998;2023-08-30T02:03:23;4.55;;;4.15;;
30299;SDS011;17110;52.602;12.998;2023-08-30T02:03:54;5.75;;;4.60;;
30299;SDS011;17110;52.602;12.998;2023-08-30T02:04:25;6.50;;;4.43;;
30299;SDS011;17110;52.602;12.998;2023-08-30T02:04:55;4.90;;;4.50;;
30299;SDS011;17110;52.602;12.998;2023-08-30T02:05:26;5.07;;;4.65;;
30299;SDS011;17110;52.602;12.998;2023-08-30T02:05:58;4.57;;;4.18;;
30299;SDS011;17110;52.602;12.998;2023-08-30T02:06:35;4.18;;;3.88;;
30299;SDS011;17110;52.602;12.998;2023-08-30T02:07:13;4.88;;;4.45;;
30299;SDS011;17110;52.602;12.998;2023-08-30T02:07:51;5.18;;;4.78;;
30299;SDS011;17110;52.602;12.998;2023-08-30T02:08:29;4.72;;;4.32;;
30299;SDS011;17110;52.602;12.998;2023-08-30T02:09:08;5.32;;;4.90;;
30299;SDS011;17110;52.602;12.998;2023-08-30T02:09:46;4.85;;;4.25;;
30299;SDS011;17110;52.602;12.998;2023-08-30T02:10:21;5.00;;;4.60;;
30299;SDS011;17110;52.602;12.998;2023-08-30T02:10:55;5.32;;;4.93;;
30299;SDS011;17110;52.602;12.998;2023-08-30T02:11:32;5.35;;;4.85;;
30299;SDS011;17110;52.602;12.998;2023-08-30T02:12:04;4.85;;;4.55;;
30299;SDS011;17110;52.602;12.998;2023-08-30T02:12:41;5.53;;;5.10;;
30299;SDS011;17110;52.602;12.998;2023-08-30T02:13:17;5.38;;;4.95;;
30299;SDS011;17110;52.602;12.998;2023-08-30T02:13:57;5.50;;;5.00;;
30299;SDS011;17110;52.602;12.998;2023-08-30T02:14:29;5.38;;;4.88;;
30299;SDS011;17110;52.602;12.998;2023-08-30T02:15:01;4.75;;;4.45;;
30299;SDS011;17110;52.602;12.998;2023-08-30T02:15:33;5.15;;;4.75;;
30299;SDS011;17110;52.602;12.998;2023-08-30T02:16:06;5.10;;;4.70;;
30299;SDS011;17110;52.602;12.998;2023-08-30T02:16:44;5.30;;;4.90;;
30299;SDS011;17110;52.602;12.998;2023-08-30T02:17:16;4.90;;;4.28;;
30299;SDS011;17110;52.602;12.998;2023-08-30T02:17:48;5.05;;;4.65;;
30299;SDS011;17110;52.602;12.998;2023-08-30T02:18:19;5.30;;;4.80;;
30299;SDS011;17110;52.602;12.998;2023-08-30T02:18:49;4.88;;;4.45;;
30299;SDS011;17110;52.602;12.998;2023-08-30T02:19:21;6.57;;;5.60;;
30299;SDS011;17110;52.602;12.998;2023-08-30T02:19:52;5.43;;;5.03;;
30299;SDS011;17110;52.602;12.998;2023-08-30T02:20:23;5.47;;;5.03;;
30299;SDS011;17110;52.602;12.998;2023-08-30T02:20:54;5.97;;;5.47;;
30299;SDS011;17110;52.602;12.998;2023-08-30T02:21:24;6.93;;;5.03;;
30299;SDS011;17110;52.602;12.998;2023-08-30T02:21:56;5.80;;;5.30;;
30299;SDS011;17110;52.602;12.998;2023-08-30T02:22:26;6.75;;;4.88;;
30299;SDS011;17110;52.602;12.998;2023-08-30T02:22:57;5.28;;;4.68;;
30299;SDS011;17110;52.602;12.998;2023-08-30T02:23:28;4.55;;;4.25;;
30299;SDS011;17110;52.602;12.998;2023-08-30T02:24:01;5.07;;;4.70;;
30299;SDS011;17110;52.602;12.998;2023-08-30T02:24:34;6.13;;;5.53;;
30299;SDS011;17110;52.602;12.998;2023-08-30T02:25:05;5.80;;;5.30;;
30299;SDS011;17110;52.602;12.998;2023-08-30T02:25:36;5.13;;;4.72;;
30299;SDS011;17110;52.602;12.998;2023-08-30T02:26:08;5.72;;;5.22;;
30299;SDS011;17110;52.602;12.998;2023-08-30T02:26:38;5.15;;;4.75;;
30299;SDS011;17110;52.602;12.998;2023-08-30T02:27:13;5.25;;;4.72;;
30299;SDS011;17110;52.602;12.998;2023-08-30T02:27:46;5.75;;;5.30;;
30299;SDS011;17110;52.602;12.998;2023-08-30T02:28:18;6.45;;;5.90;;
30299;SDS011;17110;52.602;12.998;2023-08-30T02:28:49;5.70;;;5.20;;
30299;SDS011;17110;52.602;12.998;2023-08-30T02:29:20;5.85;;;5.22;;
30299;SDS011;17110;52.602;12.998;2023-08-30T02:29:50;5.57;;;5.18;;
30299;SDS011;17110;52.602;12.998;2023-08-30T02:30:21;5.03;;;4.72;;
30299;SDS011;17110;52.602;12.998;2023-08-30T02:30:52;5.85;;;4.93;;
30299;SDS011;17110;52.602;12.998;2023-08-30T02:31:23;5.25;;;4.85;;
30299;SDS011;17110;52.602;12.998;2023-08-30T02:31:54;4.93;;;4.43;;
30299;SDS011;17110;52.602;12.998;2023-08-30T02:32:25;6.05;;;5.45;;
30299;SDS011;17110;52.602;12.998;2023-08-30T02:32:56;6.57;;;5.85;;
30299;SDS011;17110;52.602;12.998;2023-08-30T02:33:27;6.18;;;5.65;;
30299;SDS011;17110;52.602;12.998;2023-08-30T02:33:57;5.47;;;5.07;;
30299;SDS011;17110;52.602;12.998;2023-08-30T02:34:28;5.10;;;4.70;;
30299;SDS011;17110;52.602;12.998;2023-08-30T02:34:59;5.70;;;5.20;;
30299;SDS011;17110;52.602;12.998;2023-08-30T02:35:29;5.85;;;5.35;;
30299;SDS011;17110;52.602;12.998;2023-08-30T02:36:01;5.60;;;5.20;;
30299;SDS011;17110;52.602;12.998;2023-08-30T02:36:31;5.05;;;4.60;;
30299;SDS011;17110;52.602;12.998;2023-08-30T02:37:02;5.00;;;4.60;;
30299;SDS011;17110;52.602;12.998;2023-08-30T02:37:33;5.18;;;4.68;;
30299;SDS011;17110;52.602;12.998;2023-08-30T02:38:03;5.38;;;4.97;;
30299;SDS011;17110;52.602;12.998;2023-08-30T02:38:34;6.78;;;5.13;;
30299;SDS011;17110;52.602;12.998;2023-08-30T02:39:04;5.85;;;5.35;;
30299;SDS011;17110;52.602;12.998;2023-08-30T02:39:35;6.43;;;5.60;;
30299;SDS011;17110;52.602;12.998;2023-08-30T02:40:06;5.38;;;4.68;;
30299;SDS011;17110;52.602;12.998;2023-08-30T02:40:38;6.00;;;5.43;;
30299;SDS011;17110;52.602;12.998;2023-08-30T02:41:08;5.28;;;4.85;;
30299;SDS011;17110;52.602;12.998;2023-08-30T02:41:39;4.88;;;4.57;;
30299;SDS011;17110;52.602;12.998;2023-08-30T02:42:09;5.47;;;5.07;;
30299;SDS011;17110;52.602;12.998;2023-08-30T02:42:40;5.30;;;4.90;;
30299;SDS011;17110;52.602;12.998;2023-08-30T02:43:11;5.15;;;4.75;;
30299;SDS011;17110;52.602;12.998;2023-08-30T02:43:43;5.55;;;5.13;;
30299;SDS011;17110;52.602;12.998;2023-08-30T02:44:13;5.25;;;4.75;;
30299;SDS011;17110;52.602;12.998;2023-08-30T02:44:45;5.63;;;5.07;;
30299;SDS011;17110;52.602;12.998;2023-08-30T02:45:16;6.25;;;5.65;;
30299;SDS011;17110;52.602;12.998;2023-08-30T02:45:47;5.72;;;5.22;;
30299;SDS011;17110;52.602;12.998;2023-08-30T02:46:17;5.70;;;5.20;;
30299;SDS011;17110;52.602;12.998;2023-08-30T02:46:49;5.38;;;4.88;;
30299;SDS011;17110;52.602;12.998;2023-08-30T02:47:19;5.78;;;5.38;;
30299;SDS011;17110;52.602;12.998;2023-08-30T02:47:50;5.85;;;5.25;;
30299;SDS011;17110;52.602;12.998;2023-08-30T02:48:21;6.30;;;5.70;;
30299;SDS011;17110;52.602;12.998;2023-08-30T02:48:51;6.10;;;5.50;;
30299;SDS011;17110;52.602;12.998;2023-08-30T02:49:22;5.72;;;5.13;;
30299;SDS011;17110;52.602;12.998;2023-08-30T02:49:52;7.28;;;5.32;;
30299;SDS011;17110;52.602;12.998;2023-08-30T02:50:23;5.93;;;5.43;;
30299;SDS011;17110;52.602;12.998;2023-08-30T02:50:54;5.40;;;4.90;;
30299;SDS011;17110;52.602;12.998;2023-08-30T02:51:24;5.57;;;5.07;;
30299;SDS011;17110;52.602;12.998;2023-08-30T02:51:55;6.22;;;5.43;;
30299;SDS011;17110;52.602;12.998;2023-08-30T02:52:26;8.13;;;5.80;;
30299;SDS011;17110;52.602;12.998;2023-08-30T02:52:56;5.93;;;5.43;;
30299;SDS011;17110;52.602;12.998;2023-08-30T02:53:27;5.82;;;5.43;;
30299;SDS011;17110;52.602;12.998;2023-08-30T02:53:57;5.88;;;5.28;;
30299;SDS011;17110;52.602;12.998;2023-08-30T02:54:28;5.35;;;4.95;;
30299;SDS011;17110;52.602;12.998;2023-08-30T02:54:59;5.75;;;5.30;;
30299;SDS011;17110;52.602;12.998;2023-08-30T02:55:30;6.38;;;5.45;;
30299;SDS011;17110;52.602;12.998;2023-08-30T02:56:01;5.35;;;4.93;;
30299;SDS011;17110;52.602;12.998;2023-08-30T02:56:32;5.00;;;4.60;;
30299;SDS011;17110;52.602;12.998;2023-08-30T02:57:03;4.72;;;4.32;;
30299;SDS011;17110;52.602;12.998;2023-08-30T02:57:34;7.80;;;4.75;;
30299;SDS011;17110;52.602;12.998;2023-08-30T02:58:04;5.22;;;4.82;;
30299;SDS011;17110;52.602;12.998;2023-08-30T02:58:35;5.47;;;5.07;;
30299;SDS011;17110;52.602;12.998;2023-08-30T02:59:07;6.50;;;4.78;;
30299;SDS011;17110;52.602;12.998;2023-08-30T02:59:38;4.93;;;4.63;;
30299;SDS011;17110;52.602;12.998;2023-08-30T03:00:10;4.75;;;4.35;;
30299;SDS011;17110;52.602;12.998;2023-08-30T03:00:42;5.47;;;4.85;;
30299;SDS011;17110;52.602;12.998;2023-08-30T03:01:13;5.00;;;4.60;;
30299;SDS011;17110;52.602;12.998;2023-08-30T03:01:44;4.97;;;4.50;;
30299;SDS011;17110;52.602;12.998;2023-08-30T03:02:16;5.60;;;4.50;;
30299;SDS011;17110;52.602;12.998;2023-08-30T03:02:59;6.10;;;5.60;;
30299;SDS011;17110;52.602;12.998;2023-08-30T03:03:29;5.20;;;4.80;;
30299;SDS011;17110;52.602;12.998;2023-08-30T03:04:00;4.88;;;4.50;;
30299;SDS011;17110;52.602;12.998;2023-08-30T03:04:31;6.32;;;5.78;;
30299;SDS011;17110;52.602;12.998;2023-08-30T03:05:56;6.07;;;5.57;;
30299;SDS011;17110;52.602;12.998;2023-08-30T03:06:27;6.10;;;5.60;;
30299;SDS011;17110;52.602;12.998;2023-08-30T03:06:58;6.15;;;5.28;;
30299;SDS011;17110;52.602;12.998;2023-08-30T03:07:31;8.35;;;5.70;;
30299;SDS011;17110;52.602;12.998;2023-08-30T03:08:02;7.63;;;5.97;;
30299;SDS011;17110;52.602;12.998;2023-08-30T03:08:33;5.90;;;5.40;;
30299;SDS011;17110;52.602;12.998;2023-08-30T03:09:03;5.32;;;4.93;;
30299;SDS011;17110;52.602;12.998;2023-08-30T03:09:38;6.03;;;5.53;;
30299;SDS011;17110;52.602;12.998;2023-08-30T03:10:09;5.80;;;5.32;;
30299;SDS011;17110;52.602;12.998;2023-08-30T03:10:41;6.43;;;5.28;;
30299;SDS011;17110;52.602;12.998;2023-08-30T03:11:12;6.78;;;6.22;;
30299;SDS011;17110;52.602;12.998;2023-08-30T03:11:51;5.68;;;5.22;;
30299;SDS011;17110;52.602;12.998;2023-08-30T03:12:22;5.63;;;5.22;;
30299;SDS011;17110;52.602;12.998;2023-08-30T03:12:52;6.00;;;5.55;;
30299;SDS011;17110;52.602;12.998;2023-08-30T03:13:23;5.43;;;5.00;;
30299;SDS011;17110;52.602;12.998;2023-08-30T03:13:54;5.43;;;4.97;;
30299;SDS011;17110;52.602;12.998;2023-08-30T03:14:26;6.53;;;5.47;;
30299;SDS011;17110;52.602;12.998;2023-08-30T03:14:57;8.07;;;5.60;;
30299;SDS011;17110;52.602;12.998;2023-08-30T03:15:27;5.93;;;5.53;;
30299;SDS011;17110;52.602;12.998;2023-08-30T03:16:01;7.63;;;5.25;;
30299;SDS011;17110;52.602;12.998;2023-08-30T03:16:32;5.93;;;5.47;;